createdAt,value
2017-08-26T00:00:02.524Z,83.30
2017-08-26T00:02:35.787Z,83.50
2017-08-26T00:05:03.313Z,83.40
2017-08-26T00:07:30.831Z,83.30
2017-08-26T00:09:58.349Z,83.30
2017-08-26T00:12:25.855Z,83.30
2017-08-26T00:14:53.359Z,83.70
2017-08-26T00:17:20.857Z,84.00
2017-08-26T00:19:48.354Z,84.20
2017-08-26T00:22:15.858Z,84.50
2017-08-26T00:24:43.365Z,84.40
2017-08-26T00:27:10.893Z,84.20
2017-08-26T00:29:38.395Z,84.30
2017-08-26T00:32:05.895Z,84.10
2017-08-26T00:34:33.429Z,84.00
2017-08-26T00:37:00.926Z,84.00
2017-08-26T00:39:28.440Z,84.30
2017-08-26T00:41:55.952Z,84.30
2017-08-26T00:44:23.484Z,84.40
2017-08-26T00:46:50.991Z,84.30
2017-08-26T00:49:18.483Z,84.70
2017-08-26T00:51:45.991Z,84.40
2017-08-26T00:54:13.479Z,84.60
2017-08-26T00:56:40.999Z,84.30
2017-08-26T00:59:08.544Z,84.30
2017-08-26T01:01:36.083Z,84.20
2017-08-26T01:04:03.613Z,83.90
2017-08-26T01:06:31.159Z,84.90
2017-08-26T01:08:58.658Z,84.50
2017-08-26T01:11:27.184Z,84.40
2017-08-26T01:13:54.688Z,84.50
2017-08-26T01:16:22.220Z,84.30
2017-08-26T01:18:49.735Z,84.00
2017-08-26T01:21:17.229Z,84.40
2017-08-26T01:23:44.754Z,84.50
2017-08-26T01:26:12.292Z,84.50
2017-08-26T01:28:39.814Z,85.00
2017-08-26T01:31:07.316Z,84.10
2017-08-26T01:33:34.832Z,84.40
2017-08-26T01:36:02.342Z,84.90
2017-08-26T01:38:29.881Z,85.10
2017-08-26T01:40:57.399Z,84.90
2017-08-26T01:43:24.921Z,84.70
2017-08-26T01:45:52.420Z,85.20
2017-08-26T01:48:19.925Z,84.70
2017-08-26T01:50:47.440Z,84.90
2017-08-26T01:53:14.954Z,85.40
2017-08-26T01:55:42.457Z,85.30
2017-08-26T01:58:09.958Z,85.00
2017-08-26T02:00:37.451Z,85.00
2017-08-26T02:03:04.976Z,84.60
2017-08-26T02:05:32.470Z,84.40
2017-08-26T02:07:59.951Z,84.60
2017-08-26T02:10:27.451Z,84.80
2017-08-26T02:12:54.939Z,85.10
2017-08-26T02:15:22.471Z,85.20
2017-08-26T02:17:49.978Z,85.20
2017-08-26T02:20:17.493Z,85.40
2017-08-26T02:22:44.990Z,85.00
2017-08-26T02:25:12.507Z,85.10
2017-08-26T02:27:40.792Z,85.10
2017-08-26T02:30:08.315Z,85.40
2017-08-26T02:32:35.815Z,85.30
2017-08-26T02:35:03.333Z,84.90
2017-08-26T02:37:30.846Z,85.30
2017-08-26T02:39:58.361Z,85.00
2017-08-26T02:42:25.873Z,85.30
2017-08-26T02:44:53.420Z,85.60
2017-08-26T02:47:20.926Z,85.70
2017-08-26T02:49:48.445Z,85.60
2017-08-26T02:52:15.940Z,85.80
2017-08-26T02:54:43.449Z,86.00
2017-08-26T02:57:10.983Z,86.10
2017-08-26T02:59:38.497Z,86.10
2017-08-26T03:02:06.044Z,85.80
2017-08-26T03:04:33.567Z,85.50
2017-08-26T03:07:01.091Z,85.10
2017-08-26T03:09:28.595Z,84.80
2017-08-26T03:11:59.455Z,84.70
2017-08-26T03:14:26.968Z,84.50
2017-08-26T03:16:54.468Z,84.70
2017-08-26T03:19:21.973Z,84.60
2017-08-26T03:21:49.485Z,84.90
2017-08-26T03:24:17.028Z,85.00
2017-08-26T03:26:44.568Z,84.90
2017-08-26T03:29:12.102Z,85.30
2017-08-26T03:31:39.620Z,85.20
2017-08-26T03:34:07.143Z,84.90
2017-08-26T03:36:34.675Z,85.00
2017-08-26T03:39:02.229Z,85.20
2017-08-26T03:41:29.765Z,85.40
2017-08-26T03:43:57.295Z,85.20
2017-08-26T03:46:24.843Z,85.00
2017-08-26T03:48:52.409Z,85.20
2017-08-26T03:51:19.934Z,85.20
2017-08-26T03:53:47.503Z,84.70
2017-08-26T03:56:15.662Z,84.60
2017-08-26T03:58:43.212Z,84.60
2017-08-26T04:01:10.736Z,84.60
2017-08-26T04:03:38.256Z,84.70
2017-08-26T04:06:05.809Z,84.20
2017-08-26T04:08:33.482Z,83.50
2017-08-26T04:11:01.002Z,83.50
2017-08-26T04:13:28.550Z,83.40
2017-08-26T04:15:56.061Z,83.80
2017-08-26T04:18:23.572Z,84.20
2017-08-26T04:20:51.102Z,84.00
2017-08-26T04:23:18.620Z,84.00
2017-08-26T04:25:46.222Z,83.80
2017-08-26T04:28:13.737Z,83.90
2017-08-26T04:30:41.273Z,84.00
2017-08-26T04:33:08.794Z,83.90
2017-08-26T04:35:36.320Z,83.80
2017-08-26T04:38:03.820Z,84.00
2017-08-26T04:40:31.385Z,84.20
2017-08-26T04:42:58.903Z,84.30
2017-08-26T04:45:26.420Z,84.20
2017-08-26T04:47:53.920Z,84.30
2017-08-26T04:50:21.539Z,84.10
2017-08-26T04:52:49.029Z,83.90
2017-08-26T04:55:16.548Z,83.70
2017-08-26T04:57:44.073Z,83.60
2017-08-26T05:00:11.640Z,83.80
2017-08-26T05:02:39.138Z,83.90
2017-08-26T05:05:06.665Z,83.60
2017-08-26T05:07:34.213Z,83.50
2017-08-26T05:10:01.742Z,83.50
2017-08-26T05:12:29.300Z,84.00
2017-08-26T05:14:56.825Z,84.20
2017-08-26T05:17:24.638Z,84.40
2017-08-26T05:19:52.247Z,84.10
2017-08-26T05:22:19.792Z,83.80
2017-08-26T05:24:47.301Z,83.80
2017-08-26T05:27:14.837Z,83.60
2017-08-26T05:29:42.415Z,83.70
2017-08-26T05:32:09.950Z,83.60
2017-08-26T05:34:37.473Z,83.20
2017-08-26T05:37:04.993Z,83.40
2017-08-26T05:39:32.528Z,83.40
2017-08-26T05:42:00.084Z,84.10
2017-08-26T05:44:27.595Z,83.40
2017-08-26T05:46:55.105Z,83.40
2017-08-26T05:49:22.629Z,83.50
2017-08-26T05:51:50.161Z,83.60
2017-08-26T05:54:17.700Z,83.70
2017-08-26T05:56:45.301Z,83.70
2017-08-26T05:59:12.839Z,83.70
2017-08-26T06:01:40.375Z,83.40
2017-08-26T06:04:07.875Z,83.50
2017-08-26T06:06:35.406Z,83.40
2017-08-26T06:09:02.973Z,83.10
2017-08-26T06:11:30.551Z,82.80
2017-08-26T06:13:58.110Z,82.60
2017-08-26T06:16:25.676Z,82.50
2017-08-26T06:18:53.224Z,82.30
2017-08-26T06:21:20.777Z,82.20
2017-08-26T06:23:48.330Z,82.40
2017-08-26T06:26:15.868Z,81.80
2017-08-26T06:28:43.397Z,82.20
2017-08-26T06:31:10.911Z,82.00
2017-08-26T06:33:38.412Z,82.00
2017-08-26T06:36:05.928Z,82.10
2017-08-26T06:38:33.431Z,81.80
2017-08-26T06:41:00.952Z,81.50
2017-08-26T06:43:28.452Z,81.70
2017-08-26T06:45:55.986Z,81.40
2017-08-26T06:48:23.524Z,81.50
2017-08-26T06:50:51.079Z,81.50
2017-08-26T06:53:18.593Z,81.20
2017-08-26T06:55:46.139Z,80.90
2017-08-26T06:58:13.721Z,80.20
2017-08-26T07:00:41.225Z,80.40
2017-08-26T07:03:08.744Z,80.00
2017-08-26T07:05:36.234Z,80.00
2017-08-26T07:08:03.783Z,80.10
2017-08-26T07:10:31.318Z,79.90
2017-08-26T07:12:58.882Z,79.60
2017-08-26T07:15:26.360Z,79.80
2017-08-26T07:17:53.900Z,79.40
2017-08-26T07:20:21.426Z,79.10
2017-08-26T07:22:48.974Z,78.60
2017-08-26T07:25:16.478Z,78.20
2017-08-26T07:27:44.028Z,78.50
2017-08-26T07:30:11.676Z,77.10
2017-08-26T07:32:39.247Z,76.60
2017-08-26T07:35:06.768Z,76.50
2017-08-26T07:37:34.269Z,76.30
2017-08-26T07:40:01.811Z,76.70
2017-08-26T07:42:29.371Z,75.80
2017-08-26T07:44:56.931Z,75.50
2017-08-26T07:47:24.446Z,75.50
2017-08-26T07:49:52.089Z,75.40
2017-08-26T07:52:19.693Z,74.60
2017-08-26T07:54:47.212Z,74.20
2017-08-26T07:57:14.777Z,74.00
2017-08-26T07:59:42.307Z,73.20
2017-08-26T08:02:09.840Z,73.10
2017-08-26T08:04:37.684Z,73.00
2017-08-26T08:07:05.445Z,71.70
2017-08-26T08:09:32.971Z,71.90
2017-08-26T08:12:00.498Z,71.60
2017-08-26T08:14:28.032Z,71.60
2017-08-26T08:16:55.767Z,72.10
2017-08-26T08:19:23.384Z,71.80
2017-08-26T08:21:50.918Z,71.60
2017-08-26T08:24:18.427Z,71.20
2017-08-26T08:26:45.978Z,71.00
2017-08-26T08:29:13.671Z,70.70
2017-08-26T08:31:43.225Z,70.00
2017-08-26T08:34:10.776Z,70.00
2017-08-26T08:36:38.339Z,70.10
2017-08-26T08:39:05.896Z,69.80
2017-08-26T08:41:33.451Z,69.40
2017-08-26T08:44:00.968Z,69.40
2017-08-26T08:46:28.520Z,69.30
2017-08-26T08:48:56.071Z,68.90
2017-08-26T08:51:23.630Z,69.70
2017-08-26T08:53:51.149Z,69.00
2017-08-26T08:56:18.678Z,68.60
2017-08-26T08:58:46.583Z,69.00
2017-08-26T09:01:14.216Z,68.30
2017-08-26T09:03:44.686Z,68.50
2017-08-26T09:06:12.242Z,68.50
2017-08-26T09:08:39.768Z,68.50
2017-08-26T09:11:07.312Z,67.60
2017-08-26T09:13:34.950Z,67.40
2017-08-26T09:16:02.471Z,67.10
2017-08-26T09:18:29.989Z,67.60
2017-08-26T09:20:57.521Z,67.20
2017-08-26T09:23:25.051Z,67.20
2017-08-26T09:25:52.591Z,66.80
2017-08-26T09:28:20.230Z,66.50
2017-08-26T09:30:47.723Z,66.40
2017-08-26T09:33:15.286Z,66.60
2017-08-26T09:35:42.827Z,65.50
2017-08-26T09:38:10.332Z,65.60
2017-08-26T09:40:37.893Z,65.00
2017-08-26T09:43:05.443Z,64.50
2017-08-26T09:45:33.063Z,64.10
2017-08-26T09:48:00.576Z,64.10
2017-08-26T09:50:28.107Z,63.40
2017-08-26T09:52:55.663Z,63.40
2017-08-26T09:55:23.187Z,63.20
2017-08-26T09:57:50.685Z,63.90
2017-08-26T10:00:18.244Z,63.00
2017-08-26T10:02:45.755Z,64.00
2017-08-26T10:05:13.352Z,63.20
2017-08-26T10:07:40.873Z,63.40
2017-08-26T10:10:08.364Z,62.20
2017-08-26T10:12:35.895Z,63.00
2017-08-26T10:15:03.408Z,62.50
2017-08-26T10:17:30.942Z,62.50
2017-08-26T10:19:58.497Z,61.70
2017-08-26T10:22:26.034Z,62.00
2017-08-26T10:24:53.710Z,61.20
2017-08-26T10:27:21.407Z,61.40
2017-08-26T10:29:48.968Z,60.50
2017-08-26T10:32:16.512Z,60.20
2017-08-26T10:34:44.024Z,58.90
2017-08-26T10:37:11.544Z,59.20
2017-08-26T10:39:39.096Z,58.50
2017-08-26T10:42:06.655Z,57.10
2017-08-26T10:44:34.213Z,57.20
2017-08-26T10:47:02.344Z,57.40
2017-08-26T10:49:30.046Z,56.90
2017-08-26T10:51:57.691Z,56.70
2017-08-26T10:54:25.288Z,56.60
2017-08-26T10:56:52.827Z,56.10
2017-08-26T10:59:20.443Z,56.00
2017-08-26T11:01:48.020Z,56.60
2017-08-26T11:04:15.540Z,57.00
2017-08-26T11:06:43.150Z,57.30
2017-08-26T11:09:10.810Z,56.40
2017-08-26T11:11:38.402Z,56.70
2017-08-26T11:14:06.055Z,55.80
2017-08-26T11:16:33.676Z,56.80
2017-08-26T11:19:01.240Z,56.80
2017-08-26T11:21:28.773Z,56.30
2017-08-26T11:23:56.455Z,55.90
2017-08-26T11:26:23.969Z,55.50
2017-08-26T11:28:51.485Z,56.40
2017-08-26T11:31:19.057Z,55.10
2017-08-26T11:33:46.619Z,55.10
2017-08-26T11:36:14.500Z,56.00
2017-08-26T11:38:42.555Z,56.20
2017-08-26T11:41:10.198Z,55.40
2017-08-26T11:43:37.740Z,56.40
2017-08-26T11:46:06.425Z,56.90
2017-08-26T11:48:34.436Z,57.10
2017-08-26T11:51:03.531Z,56.60
2017-08-26T11:53:31.156Z,57.00
2017-08-26T11:55:58.676Z,57.70
2017-08-26T11:58:26.285Z,56.70
2017-08-26T12:00:53.847Z,56.70
2017-08-26T12:03:21.493Z,56.90
2017-08-26T12:05:49.052Z,56.60
2017-08-26T12:08:16.612Z,56.40
2017-08-26T12:10:44.160Z,56.20
2017-08-26T12:13:11.747Z,56.70
2017-08-26T12:15:39.292Z,57.10
2017-08-26T12:18:06.842Z,56.90
2017-08-26T12:20:34.370Z,56.60
2017-08-26T12:23:02.036Z,57.30
2017-08-26T12:25:29.553Z,56.30
2017-08-26T12:27:57.087Z,56.90
2017-08-26T12:30:24.585Z,56.60
2017-08-26T12:32:52.153Z,57.10
2017-08-26T12:35:19.685Z,57.40
2017-08-26T12:37:47.250Z,57.30
2017-08-26T12:40:14.806Z,56.60
2017-08-26T12:42:42.365Z,56.10
2017-08-26T12:45:10.033Z,56.60
2017-08-26T12:47:37.619Z,57.00
2017-08-26T12:50:09.946Z,56.60
2017-08-26T12:52:37.899Z,56.60
2017-08-26T12:55:05.405Z,56.30
2017-08-26T12:57:32.899Z,56.50
2017-08-26T13:00:00.550Z,57.00
2017-08-26T13:02:29.216Z,55.80
2017-08-26T13:04:59.877Z,56.20
2017-08-26T13:07:28.628Z,56.30
2017-08-26T13:09:56.261Z,56.70
2017-08-26T13:12:23.799Z,56.60
2017-08-26T13:14:51.364Z,55.60
2017-08-26T13:17:18.903Z,55.60
2017-08-26T13:19:46.427Z,55.90
2017-08-26T13:22:20.391Z,54.60
2017-08-26T13:24:47.932Z,54.60
2017-08-26T13:27:15.437Z,55.00
2017-08-26T13:29:43.272Z,55.50
2017-08-26T13:32:10.801Z,54.60
2017-08-26T13:34:38.320Z,54.90
2017-08-26T13:37:05.880Z,54.30
2017-08-26T13:39:33.499Z,54.30
2017-08-26T13:42:01.156Z,54.10
2017-08-26T13:44:28.700Z,54.40
2017-08-26T13:46:56.219Z,54.40
2017-08-26T13:49:23.796Z,55.00
2017-08-26T13:51:51.323Z,54.80
2017-08-26T13:54:18.917Z,54.50
2017-08-26T13:56:46.444Z,54.70
2017-08-26T13:59:14.067Z,54.80
2017-08-26T14:01:41.634Z,55.20
2017-08-26T14:04:09.140Z,54.40
2017-08-26T14:06:36.700Z,55.50
2017-08-26T14:09:04.265Z,55.90
2017-08-26T14:11:31.816Z,56.30
2017-08-26T14:13:59.376Z,55.00
2017-08-26T14:16:26.885Z,55.70
2017-08-26T14:18:54.459Z,55.60
2017-08-26T14:21:22.005Z,55.70
2017-08-26T14:23:49.595Z,55.40
2017-08-26T14:26:17.126Z,55.60
2017-08-26T14:28:44.639Z,54.90
2017-08-26T14:31:12.141Z,54.80
2017-08-26T14:33:39.790Z,55.00
2017-08-26T14:36:07.324Z,55.10
2017-08-26T14:38:34.835Z,55.80
2017-08-26T14:41:02.394Z,56.10
2017-08-26T14:43:29.940Z,56.00
2017-08-26T14:45:57.525Z,56.50
2017-08-26T14:48:25.044Z,56.80
2017-08-26T14:50:52.609Z,57.10
2017-08-26T14:53:20.119Z,56.40
2017-08-26T14:55:47.684Z,56.70
2017-08-26T14:58:15.247Z,56.80
2017-08-26T15:00:42.752Z,56.00
2017-08-26T15:03:10.254Z,56.10
2017-08-26T15:05:37.839Z,57.10
2017-08-26T15:08:05.376Z,56.70
2017-08-26T15:10:33.298Z,56.50
2017-08-26T15:13:00.856Z,57.10
2017-08-26T15:15:28.416Z,57.60
2017-08-26T15:17:56.032Z,57.60
2017-08-26T15:20:23.581Z,57.60
2017-08-26T15:22:51.133Z,57.80
2017-08-26T15:25:18.741Z,57.40
2017-08-26T15:27:46.825Z,57.70
2017-08-26T15:30:14.349Z,58.30
2017-08-26T15:32:41.902Z,58.40
2017-08-26T15:35:09.428Z,58.60
2017-08-26T15:37:37.015Z,59.00
2017-08-26T15:40:04.621Z,58.30
2017-08-26T15:42:32.146Z,58.70
2017-08-26T15:44:59.743Z,58.60
2017-08-26T15:47:27.251Z,58.00
2017-08-26T15:49:54.746Z,58.30
2017-08-26T15:52:22.256Z,58.40
2017-08-26T15:54:49.792Z,57.90
2017-08-26T15:57:17.394Z,58.20
2017-08-26T15:59:44.966Z,58.20
2017-08-26T16:02:12.564Z,58.50
2017-08-26T16:04:40.099Z,58.50
2017-08-26T16:07:07.612Z,58.40
2017-08-26T16:09:35.138Z,58.40
2017-08-26T16:12:02.707Z,59.00
2017-08-26T16:14:30.299Z,58.20
2017-08-26T16:16:57.933Z,58.50
2017-08-26T16:19:25.618Z,59.10
2017-08-26T16:21:53.183Z,58.50
2017-08-26T16:24:20.708Z,59.30
2017-08-26T16:26:48.340Z,59.00
2017-08-26T16:29:15.949Z,58.80
2017-08-26T16:31:43.732Z,59.40
2017-08-26T16:34:11.351Z,59.10
2017-08-26T16:36:38.974Z,59.20
2017-08-26T16:39:06.514Z,59.50
2017-08-26T16:41:34.149Z,59.70
2017-08-26T16:44:01.771Z,59.50
2017-08-26T16:46:29.370Z,59.50
2017-08-26T16:48:56.932Z,59.90
2017-08-26T16:51:24.542Z,60.00
2017-08-26T16:53:52.168Z,60.40
2017-08-26T16:56:19.714Z,60.60
2017-08-26T16:58:47.269Z,60.60
2017-08-26T17:01:14.893Z,60.80
2017-08-26T17:03:42.448Z,60.90
2017-08-26T17:06:10.349Z,60.70
2017-08-26T17:08:38.097Z,61.00
2017-08-26T17:11:05.637Z,61.30
2017-08-26T17:13:33.459Z,61.60
2017-08-26T17:16:01.074Z,61.60
2017-08-26T17:18:28.629Z,61.40
2017-08-26T17:20:56.203Z,61.70
2017-08-26T17:23:23.803Z,62.20
2017-08-26T17:25:51.407Z,62.90
2017-08-26T17:28:18.967Z,63.80
2017-08-26T17:30:46.526Z,64.50
2017-08-26T17:33:14.096Z,65.10
2017-08-26T17:35:41.655Z,65.10
2017-08-26T17:38:09.309Z,65.20
2017-08-26T17:40:36.955Z,65.40
2017-08-26T17:43:04.525Z,65.60
2017-08-26T17:45:32.038Z,65.70
2017-08-26T17:47:59.605Z,65.70
2017-08-26T17:50:27.225Z,66.00
2017-08-26T17:52:55.625Z,66.20
2017-08-26T17:55:23.188Z,66.80
2017-08-26T17:57:50.752Z,66.40
2017-08-26T18:00:18.306Z,66.50
2017-08-26T18:02:45.911Z,66.70
2017-08-26T18:05:13.428Z,67.20
2017-08-26T18:07:40.989Z,67.20
2017-08-26T18:10:08.576Z,67.30
2017-08-26T18:12:36.118Z,67.60
2017-08-26T18:15:03.820Z,67.50
2017-08-26T18:17:31.391Z,67.60
2017-08-26T18:19:58.996Z,67.40
2017-08-26T18:22:26.554Z,67.40
2017-08-26T18:24:54.252Z,67.80
2017-08-26T18:27:22.028Z,67.70
2017-08-26T18:29:50.324Z,67.90
2017-08-26T18:32:17.925Z,68.50
2017-08-26T18:34:45.525Z,68.80
2017-08-26T18:37:13.144Z,68.60
2017-08-26T18:39:42.798Z,69.00
2017-08-26T18:42:10.352Z,69.20
2017-08-26T18:44:38.019Z,69.30
2017-08-26T18:47:05.563Z,69.40
2017-08-26T18:49:33.436Z,69.40
2017-08-26T18:52:00.998Z,69.70
2017-08-26T18:54:28.559Z,69.90
2017-08-26T18:56:57.292Z,70.10
2017-08-26T18:59:24.905Z,70.10
2017-08-26T19:01:52.791Z,70.40
2017-08-26T19:04:20.483Z,70.40
2017-08-26T19:06:48.413Z,70.50
2017-08-26T19:09:16.060Z,70.60
2017-08-26T19:11:44.433Z,70.30
2017-08-26T19:14:12.323Z,70.60
2017-08-26T19:16:40.205Z,70.70
2017-08-26T19:19:07.739Z,70.90
2017-08-26T19:21:35.491Z,70.80
2017-08-26T19:24:03.067Z,70.70
2017-08-26T19:26:30.931Z,71.10
2017-08-26T19:28:58.612Z,71.10
2017-08-26T19:31:26.332Z,71.40
2017-08-26T19:33:53.928Z,71.50
2017-08-26T19:36:21.665Z,71.60
2017-08-26T19:38:49.444Z,71.70
2017-08-26T19:41:16.992Z,71.70
2017-08-26T19:43:44.556Z,71.60
2017-08-26T19:46:12.198Z,71.90
2017-08-26T19:48:40.785Z,72.00
2017-08-26T19:51:08.372Z,72.00
2017-08-26T19:53:36.055Z,72.30
2017-08-26T19:56:03.783Z,72.40
2017-08-26T19:58:31.442Z,72.30
2017-08-26T20:00:59.020Z,72.40
2017-08-26T20:03:26.568Z,72.40
2017-08-26T20:05:54.436Z,72.50
2017-08-26T20:08:22.075Z,72.40
2017-08-26T20:10:49.671Z,72.50
2017-08-26T20:13:17.271Z,72.40
2017-08-26T20:15:44.867Z,72.70
2017-08-26T20:18:12.541Z,72.80
2017-08-26T20:20:40.299Z,72.80
2017-08-26T20:23:07.968Z,73.00
2017-08-26T20:25:35.620Z,73.00
2017-08-26T20:28:03.183Z,73.60
2017-08-26T20:30:30.785Z,73.00
2017-08-26T20:32:58.463Z,73.10
2017-08-26T20:35:26.042Z,73.00
2017-08-26T20:37:53.623Z,73.00
2017-08-26T20:40:21.182Z,73.20
2017-08-26T20:42:48.744Z,73.20
2017-08-26T20:45:16.300Z,73.30
2017-08-26T20:47:43.955Z,73.60
2017-08-26T20:50:11.653Z,74.10
2017-08-26T20:52:39.289Z,73.60
2017-08-26T20:55:06.858Z,73.60
2017-08-26T20:57:34.454Z,74.00
2017-08-26T21:00:02.087Z,74.30
2017-08-26T21:02:29.768Z,74.30
2017-08-26T21:04:57.312Z,74.50
2017-08-26T21:07:24.884Z,74.70
2017-08-26T21:09:53.448Z,74.50
2017-08-26T21:12:21.938Z,74.50
2017-08-26T21:14:49.469Z,74.40
2017-08-26T21:17:16.966Z,74.20
2017-08-26T21:19:44.514Z,74.10
2017-08-26T21:22:12.197Z,74.60
2017-08-26T21:24:39.851Z,75.00
2017-08-26T21:27:07.427Z,75.10
2017-08-26T21:29:35.112Z,75.20
2017-08-26T21:32:02.900Z,75.20
2017-08-26T21:34:30.460Z,74.70
2017-08-26T21:36:58.272Z,74.80
2017-08-26T21:39:25.873Z,75.00
2017-08-26T21:41:53.511Z,74.90
2017-08-26T21:44:21.141Z,74.80
2017-08-26T21:46:48.700Z,74.70
2017-08-26T21:49:16.294Z,74.70
2017-08-26T21:51:44.063Z,74.50
2017-08-26T21:54:11.627Z,74.50
2017-08-26T21:56:39.309Z,74.50
2017-08-26T21:59:06.862Z,74.90
2017-08-26T22:01:34.376Z,75.10
2017-08-26T22:04:01.974Z,75.10
2017-08-26T22:06:29.526Z,75.10
2017-08-26T22:08:57.252Z,75.10
2017-08-26T22:11:24.824Z,74.90
2017-08-26T22:13:52.403Z,74.60
2017-08-26T22:16:19.932Z,74.50
2017-08-26T22:18:47.461Z,74.90
2017-08-26T22:21:15.034Z,75.00
2017-08-26T22:23:42.575Z,75.00
2017-08-26T22:26:10.117Z,74.60
2017-08-26T22:28:37.782Z,74.30
2017-08-26T22:31:05.360Z,74.30
2017-08-26T22:33:32.928Z,74.10
2017-08-26T22:36:00.469Z,74.40
2017-08-26T22:38:27.975Z,74.40
2017-08-26T22:40:55.520Z,74.80
2017-08-26T22:43:23.056Z,74.80
2017-08-26T22:45:50.604Z,74.90
2017-08-26T22:48:18.138Z,75.00
2017-08-26T22:50:46.097Z,75.00
2017-08-26T22:53:13.883Z,75.00
2017-08-26T22:55:41.393Z,74.90
2017-08-26T22:58:08.948Z,75.40
2017-08-26T23:00:36.492Z,74.90
2017-08-26T23:03:04.002Z,74.70
2017-08-26T23:05:31.716Z,75.10
2017-08-26T23:07:59.272Z,74.90
2017-08-26T23:10:26.784Z,75.10
2017-08-26T23:12:54.324Z,75.40
2017-08-26T23:15:21.848Z,75.40
2017-08-26T23:17:49.397Z,75.60
2017-08-26T23:20:17.001Z,75.70
2017-08-26T23:22:44.566Z,75.70
2017-08-26T23:25:12.090Z,75.40
2017-08-26T23:27:39.623Z,75.80
2017-08-26T23:30:07.904Z,76.10
2017-08-26T23:32:35.449Z,76.00
2017-08-26T23:35:02.946Z,76.20
2017-08-26T23:37:30.500Z,76.50
2017-08-26T23:39:58.035Z,76.60
2017-08-26T23:42:25.557Z,77.30
2017-08-26T23:44:53.119Z,77.80
2017-08-26T23:47:20.662Z,78.10
2017-08-26T23:49:48.191Z,78.40
2017-08-26T23:52:15.704Z,78.60
2017-08-26T23:54:43.232Z,78.40
2017-08-26T23:57:10.782Z,78.50
2017-08-26T23:59:38.320Z,78.80
